Kerrick, Texas
Current Conditions -  °F | °C
As of 8:53 AM on Monday 24 Nov 2014 (Local Time) from KDHT Reporting Station
Clear Clear  
Wind Chill: 24°   Ceiling: Unl
Heat Index: 33°   Visibility: 10mi
Dew Point: 24°   Wind: 13mph
Humidity: 70%   Direction: 270°W
Pressure: 30.02"   Gusts: NA
Location:  36.5°N, 102.24°W
Report Text: KDHT 241453Z AUTO 27011KT 10SM CLR 01/M04 A3002 RMK AO2 SLP174 T00061044 53013
Loading
Personal Weather Stations






























Interactive Weather Map New forecast layout! Learn more

10-Day Weather Forecast

Advertisements
Track Severe Weather on mobile